sensor_id;sensor_type;location;lat;lon;timestamp;P1;durP1;ratioP1;P2;durP2;ratioP2
42884;SDS011;28534;48.100;11.584;2023-04-01T00:03:08;0.95;;;0.73;;
42884;SDS011;28534;48.100;11.584;2023-04-01T00:08:11;2.13;;;0.90;;
42884;SDS011;28534;48.100;11.584;2023-04-01T00:13:13;1.85;;;0.73;;
42884;SDS011;28534;48.100;11.584;2023-04-01T00:18:15;3.10;;;0.98;;
42884;SDS011;28534;48.100;11.584;2023-04-01T00:23:18;1.13;;;0.90;;
42884;SDS011;28534;48.100;11.584;2023-04-01T00:28:20;2.42;;;0.93;;
42884;SDS011;28534;48.100;11.584;2023-04-01T00:33:22;0.95;;;0.70;;
42884;SDS011;28534;48.100;11.584;2023-04-01T00:38:26;0.70;;;0.60;;
42884;SDS011;28534;48.100;11.584;2023-04-01T00:43:27;2.47;;;1.10;;
42884;SDS011;28534;48.100;11.584;2023-04-01T00:48:31;1.85;;;1.00;;
42884;SDS011;28534;48.100;11.584;2023-04-01T00:53:38;2.45;;;0.93;;
42884;SDS011;28534;48.100;11.584;2023-04-01T00:58:43;3.00;;;0.90;;
42884;SDS011;28534;48.100;11.584;2023-04-01T01:03:50;1.00;;;0.70;;
42884;SDS011;28534;48.100;11.584;2023-04-01T01:14:19;0.98;;;0.80;;
42884;SDS011;28534;48.100;11.584;2023-04-01T01:19:43;1.35;;;0.90;;
42884;SDS011;28534;48.100;11.584;2023-04-01T01:25:02;1.05;;;0.70;;
42884;SDS011;28534;48.100;11.584;2023-04-01T01:30:20;1.42;;;0.70;;
42884;SDS011;28534;48.100;11.584;2023-04-01T01:35:38;1.58;;;0.80;;
42884;SDS011;28534;48.100;11.584;2023-04-01T01:40:42;1.02;;;0.70;;
42884;SDS011;28534;48.100;11.584;2023-04-01T01:45:48;1.77;;;0.90;;
42884;SDS011;28534;48.100;11.584;2023-04-01T01:50:54;3.13;;;1.20;;
42884;SDS011;28534;48.100;11.584;2023-04-01T01:55:56;1.50;;;0.90;;
42884;SDS011;28534;48.100;11.584;2023-04-01T02:00:58;1.40;;;0.80;;
42884;SDS011;28534;48.100;11.584;2023-04-01T02:06:04;1.63;;;0.70;;
42884;SDS011;28534;48.100;11.584;2023-04-01T02:11:09;1.77;;;0.70;;
42884;SDS011;28534;48.100;11.584;2023-04-01T02:16:13;1.52;;;0.90;;
42884;SDS011;28534;48.100;11.584;2023-04-01T02:21:22;2.47;;;0.90;;
42884;SDS011;28534;48.100;11.584;2023-04-01T02:26:27;2.25;;;0.90;;
42884;SDS011;28534;48.100;11.584;2023-04-01T02:31:29;1.00;;;0.88;;
42884;SDS011;28534;48.100;11.584;2023-04-01T02:36:34;1.58;;;0.90;;
42884;SDS011;28534;48.100;11.584;2023-04-01T02:41:39;2.20;;;0.90;;
42884;SDS011;28534;48.100;11.584;2023-04-01T02:46:41;1.38;;;0.75;;
42884;SDS011;28534;48.100;11.584;2023-04-01T02:51:45;1.27;;;0.80;;
42884;SDS011;28534;48.100;11.584;2023-04-01T02:56:46;2.55;;;0.90;;
42884;SDS011;28534;48.100;11.584;2023-04-01T03:01:48;1.80;;;0.75;;
42884;SDS011;28534;48.100;11.584;2023-04-01T03:06:51;1.58;;;0.70;;
42884;SDS011;28534;48.100;11.584;2023-04-01T03:11:53;1.45;;;1.00;;
42884;SDS011;28534;48.100;11.584;2023-04-01T03:16:55;1.70;;;0.90;;
42884;SDS011;28534;48.100;11.584;2023-04-01T03:21:58;2.42;;;1.10;;
42884;SDS011;28534;48.100;11.584;2023-04-01T03:26:59;1.65;;;0.88;;
42884;SDS011;28534;48.100;11.584;2023-04-01T03:32:01;1.40;;;0.90;;
42884;SDS011;28534;48.100;11.584;2023-04-01T03:37:04;1.88;;;0.80;;
42884;SDS011;28534;48.100;11.584;2023-04-01T03:42:06;0.95;;;0.70;;
42884;SDS011;28534;48.100;11.584;2023-04-01T03:47:08;3.00;;;0.80;;
42884;SDS011;28534;48.100;11.584;2023-04-01T03:52:11;2.88;;;1.00;;
42884;SDS011;28534;48.100;11.584;2023-04-01T03:57:13;1.70;;;0.80;;
42884;SDS011;28534;48.100;11.584;2023-04-01T04:02:15;2.92;;;0.90;;
42884;SDS011;28534;48.100;11.584;2023-04-01T04:07:18;3.42;;;1.00;;
42884;SDS011;28534;48.100;11.584;2023-04-01T04:12:20;3.75;;;1.05;;
42884;SDS011;28534;48.100;11.584;2023-04-01T04:17:21;2.55;;;0.80;;
42884;SDS011;28534;48.100;11.584;2023-04-01T04:22:24;2.03;;;0.80;;
42884;SDS011;28534;48.100;11.584;2023-04-01T04:27:26;1.90;;;0.95;;
42884;SDS011;28534;48.100;11.584;2023-04-01T04:32:28;2.45;;;1.00;;
42884;SDS011;28534;48.100;11.584;2023-04-01T04:37:32;1.17;;;0.68;;
42884;SDS011;28534;48.100;11.584;2023-04-01T04:42:34;1.52;;;0.70;;
42884;SDS011;28534;48.100;11.584;2023-04-01T04:47:36;0.85;;;0.60;;
42884;SDS011;28534;48.100;11.584;2023-04-01T04:52:39;2.92;;;0.80;;
42884;SDS011;28534;48.100;11.584;2023-04-01T04:57:41;1.50;;;0.75;;
42884;SDS011;28534;48.100;11.584;2023-04-01T05:02:43;1.65;;;0.90;;
42884;SDS011;28534;48.100;11.584;2023-04-01T05:07:46;2.20;;;1.00;;
42884;SDS011;28534;48.100;11.584;2023-04-01T05:12:48;1.02;;;0.70;;
42884;SDS011;28534;48.100;11.584;2023-04-01T05:17:50;2.38;;;0.80;;
42884;SDS011;28534;48.100;11.584;2023-04-01T05:22:56;1.60;;;0.80;;
42884;SDS011;28534;48.100;11.584;2023-04-01T05:27:58;1.52;;;0.60;;
42884;SDS011;28534;48.100;11.584;2023-04-01T05:33:00;3.85;;;0.85;;
42884;SDS011;28534;48.100;11.584;2023-04-01T05:38:03;2.25;;;0.80;;
42884;SDS011;28534;48.100;11.584;2023-04-01T05:43:05;1.70;;;0.77;;
42884;SDS011;28534;48.100;11.584;2023-04-01T05:48:06;1.60;;;0.85;;
42884;SDS011;28534;48.100;11.584;2023-04-01T05:53:09;4.30;;;0.95;;
42884;SDS011;28534;48.100;11.584;2023-04-01T05:58:11;3.22;;;0.82;;
42884;SDS011;28534;48.100;11.584;2023-04-01T06:03:13;4.68;;;1.15;;
42884;SDS011;28534;48.100;11.584;2023-04-01T06:08:17;3.78;;;1.10;;
42884;SDS011;28534;48.100;11.584;2023-04-01T06:13:21;6.22;;;1.10;;
42884;SDS011;28534;48.100;11.584;2023-04-01T06:18:44;3.88;;;1.10;;
42884;SDS011;28534;48.100;11.584;2023-04-01T06:24:04;3.15;;;1.20;;
42884;SDS011;28534;48.100;11.584;2023-04-01T06:29:28;3.75;;;1.10;;
42884;SDS011;28534;48.100;11.584;2023-04-01T06:34:54;3.83;;;1.60;;
42884;SDS011;28534;48.100;11.584;2023-04-01T06:40:38;4.93;;;1.30;;
42884;SDS011;28534;48.100;11.584;2023-04-01T06:45:50;6.38;;;1.40;;
42884;SDS011;28534;48.100;11.584;2023-04-01T06:50:58;3.58;;;1.23;;
42884;SDS011;28534;48.100;11.584;2023-04-01T06:56:09;3.75;;;1.45;;
42884;SDS011;28534;48.100;11.584;2023-04-01T07:01:14;5.60;;;1.48;;
42884;SDS011;28534;48.100;11.584;2023-04-01T07:06:24;5.35;;;1.30;;
42884;SDS011;28534;48.100;11.584;2023-04-01T07:11:33;7.65;;;1.42;;
42884;SDS011;28534;48.100;11.584;2023-04-01T07:16:38;5.85;;;1.52;;
42884;SDS011;28534;48.100;11.584;2023-04-01T07:21:45;3.90;;;1.30;;
42884;SDS011;28534;48.100;11.584;2023-04-01T07:26:54;8.05;;;1.35;;
42884;SDS011;28534;48.100;11.584;2023-04-01T07:32:04;13.43;;;2.40;;
42884;SDS011;28534;48.100;11.584;2023-04-01T07:37:22;6.78;;;1.60;;
42884;SDS011;28534;48.100;11.584;2023-04-01T07:42:33;5.80;;;1.23;;
42884;SDS011;28534;48.100;11.584;2023-04-01T07:47:43;5.35;;;1.35;;
42884;SDS011;28534;48.100;11.584;2023-04-01T07:53:04;5.55;;;1.30;;
42884;SDS011;28534;48.100;11.584;2023-04-01T07:58:18;7.78;;;1.52;;
42884;SDS011;28534;48.100;11.584;2023-04-01T08:03:33;5.25;;;1.10;;
42884;SDS011;28534;48.100;11.584;2023-04-01T08:08:44;4.90;;;1.50;;
42884;SDS011;28534;48.100;11.584;2023-04-01T08:14:01;3.95;;;1.27;;
42884;SDS011;28534;48.100;11.584;2023-04-01T08:19:12;6.68;;;1.30;;
42884;SDS011;28534;48.100;11.584;2023-04-01T08:24:23;8.90;;;2.03;;
42884;SDS011;28534;48.100;11.584;2023-04-01T08:29:33;6.13;;;1.67;;
42884;SDS011;28534;48.100;11.584;2023-04-01T08:34:40;7.75;;;1.88;;
42884;SDS011;28534;48.100;11.584;2023-04-01T08:39:46;4.78;;;1.52;;
42884;SDS011;28534;48.100;11.584;2023-04-01T08:45:01;6.10;;;1.80;;
42884;SDS011;28534;48.100;11.584;2023-04-01T08:50:36;6.88;;;1.88;;
42884;SDS011;28534;48.100;11.584;2023-04-01T08:56:00;8.88;;;1.80;;
42884;SDS011;28534;48.100;11.584;2023-04-01T09:01:17;4.20;;;1.33;;
42884;SDS011;28534;48.100;11.584;2023-04-01T09:06:35;6.68;;;1.50;;
42884;SDS011;28534;48.100;11.584;2023-04-01T09:11:44;9.35;;;1.88;;
42884;SDS011;28534;48.100;11.584;2023-04-01T09:22:50;8.73;;;2.30;;
42884;SDS011;28534;48.100;11.584;2023-04-01T09:28:05;9.57;;;2.20;;
42884;SDS011;28534;48.100;11.584;2023-04-01T09:33:20;11.38;;;2.22;;
42884;SDS011;28534;48.100;11.584;2023-04-01T09:38:43;7.78;;;2.00;;
